• Join FlightAware (Why Join?)
  • Login
  • US Flag 
05:48AM EST


 

Airport Tracker/Info


-or-


 

Live Flight TrackerFlight Track Log ✈ AWE3921 ✈ 12-Apr-2013 ✈ KROC - KDCA

Flight Track Log - Related Links

Times and Time Zones

All times are in EDT time to prevent confusion due to time zone crossing. See the AWE3921 flight status page for this flight to view local times or setup timezone preferences in your user account.

Time Position Orientation Groundspeed Altitude Reporting Facility
EDT Latitude Longitude Course Direction KTS MPH feet Rate Location/Type
12:55PM 43.0994 -77.6972 180° South 176 203 1,500  Level Cleveland Center
12:56PM 43.0603 -77.7103 194° South 163 188 4,100 2,040 Climbing Cleveland Center
12:57PM 43.0228 -77.7150 185° South 242 278 4,900 2,100 Climbing Cleveland Center
12:58PM 42.8111 -77.7230 192° South  Level FlightAware Approximate
12:58PM 42.9542 -77.7236 185° South 278 320 7,800  Level Cleveland Center
12:59PM 42.7097 -77.7521 192° South  Level FlightAware Approximate
12:59PM 42.8794 -77.7300 184° South 278 320 10,200  Level Cleveland Center
01:00PM 42.6254 -77.7774 192° South  Level FlightAware Approximate
01:00PM 42.7983 -77.7422 186° South 278 320 12,200  Level Cleveland Center
01:01PM 42.5409 -77.8000 180° South  Level FlightAware Approximate
01:01PM 42.7197 -77.7656 192° South 290 334 14,500  Level Cleveland Center
01:02PM 42.6369 -77.7861 190° South 297 342 16,400 1,980 Climbing Cleveland Center
01:03PM 42.5542 -77.8094 192° South 297 342 18,500 2,100 Climbing Cleveland Center
01:04PM 42.4586 -77.8306 189° South 313 360 20,600 1,560 Climbing Cleveland Center
01:05PM 42.3758 -77.8539 192° South 313 360 21,700 1,080 Climbing Cleveland Center
01:06PM 42.2867 -77.8775 191° South 313 360 22,800 600 Climbing Cleveland Center
01:07PM 42.1956 -77.9008 191° South 318 366 23,000 60 Climbing Cleveland Center
01:08PM 42.1022 -77.9244 191° South 336 387 23,000  Level Cleveland Center
01:09PM 42.0111 -77.9478 191° South 336 387 23,000  Level Cleveland Center
01:10PM 41.9200 -77.9711 191° South 336 387 23,000  Level Cleveland Center
01:11PM 41.8264 -77.9889 188° South 336 387 23,000  Level Cleveland Center
01:12PM 41.7333 -78.0147 192° South 336 387 23,000  Level Cleveland Center
01:13PM 41.6419 -78.0381 191° South 341 392 23,000  Level Cleveland Center
01:14PM 41.5467 -78.0611 190° South 341 392 23,000  Level Cleveland Center
01:15PM 41.4553 -78.0842 191° South 346 398 23,000  Level Cleveland Center
01:16PM 41.3619 -78.1069 190° South 346 398 23,000  Level Cleveland Center
01:17PM 41.3064 -78.1208 191° South 342 394 23,000  Level New York Center
01:18PM 41.2136 -78.1383 188° South 336 387 23,000  Level New York Center
01:19PM 41.1164 -78.0919 160° South 343 395 23,000  Level New York Center
01:20PM 41.0192 -78.0458 160° South 361 415 23,000  Level New York Center
01:21PM 40.9242 -77.9972 159° South 361 415 23,000 -720 Level New York Center
01:22PM 40.8442 -77.9092 140° Southeast 366 421 21,600 -1,500 Descending New York Center
01:23PM 40.7661 -77.8214 140° Southeast 371 427 20,000 -840 Descending New York Center
01:24PM 40.6897 -77.7369 140° Southeast 371 427 20,000  Level New York Center
01:25PM 40.6136 -77.6472 138° Southeast 371 427 20,000  Level New York Center
01:26PM 40.5353 -77.5600 140° Southeast 371 427 20,000  Level New York Center
01:27PM 40.4528 -77.4728 141° Southeast 381 438 20,000  Level New York Center
01:28PM 40.3622 -77.4122 153° Southeast 375 432 20,000  Level New York Center
01:29PM 40.2717 -77.3547 154° Southeast 368 423 20,000  Level New York Center
01:30PM 40.1831 -77.2975 154° Southeast 358 412 20,000 -540 Level New York Center
01:31PM 40.0844 -77.2364 155° Southeast 358 412 19,000 -540 Descending New York Center
01:32PM 40.0017 -77.1828 154° Southeast 344 396 19,000  Level New York Center
01:33PM 39.9231 -77.1350 155° Southeast 319 367 19,000  Level New York Center
01:34PM 39.8506 -77.0878 153° Southeast 319 367 19,000 -120 Level New York Center
01:35PM 39.7167 -77.0000 153° Southeast 358 412 18,800 -1,080 Descending Potomac TRACON
01:36PM 39.6167 -76.9500 159° South 350 403 16,400 -2,160 Descending Potomac TRACON
01:37PM 39.5333 -76.8833 148° Southeast 333 383 14,300 -1,920 Descending Potomac TRACON
01:38PM 39.4500 -76.8333 155° Southeast 309 356 12,600 -1,260 Descending Potomac TRACON
01:39PM 39.3833 -76.7833 150° Southeast 307 353 12,000 -720 Descending Potomac TRACON
01:40PM 39.3000 -76.7333 155° Southeast 299 344 11,200 -960 Descending Potomac TRACON
01:41PM 39.2167 -76.7000 163° South 287 330 10,000 -660 Descending Potomac TRACON
01:42PM 39.1667 -76.6833 166° South 271 312 10,000  Level Potomac TRACON
01:43PM 39.1000 -76.7333 210° Southwest 263 303 10,000  Level Potomac TRACON
01:44PM 39.0500 -76.8000 226° Southwest 254 292 10,000 -660 Level Potomac TRACON
01:45PM 39.0000 -76.8500 218° Southwest 254 292 8,800 -1,620 Descending Potomac TRACON
01:46PM 38.9667 -76.9333 243° Southwest 253 291 7,000 -1,440 Descending Potomac TRACON
01:47PM 38.9833 -77.0167 284° West 230 265 6,000 -540 Descending Potomac TRACON
01:48PM 39.0167 -77.0667 311° West 221 254 6,000  Level Potomac TRACON
01:49PM 39.0500 -77.1333 303° West 223 257 6,000 -240 Level Potomac TRACON
01:50PM 39.0833 -77.1833 311° West 229 264 5,600 -840 Descending Potomac TRACON
01:51PM 39.0500 -77.2500 237° Southwest 201 231 4,400 -1,200 Descending Potomac TRACON
01:52PM 39.0000 -77.2000 142° Southeast 191 220 3,200 -780 Descending Potomac TRACON
01:53PM 38.9667 -77.1500 131° Southeast 176 203 2,900 -300 Descending Potomac TRACON